Results: 2017 Tongyeong ITU Triathlon World Cup | Elite Men
Tongyeong, Korea, South • 28 Oct, 2017
Pos First Name Last Name YOB Country Start
Num
Time Swim T1 Bike T2 Run
1 Aurelien Raphael 1988 FRA 11 00:52:00 00:08:03 00:00:47 00:27:37 00:00:23 00:15:11
2 Rostislav Pevtsov 1987 AZE 2 00:52:02 00:08:36 00:00:50 00:27:05 00:00:26 00:15:07
3 Marten Van Riel 1992 BEL 8 00:52:09 00:08:06 00:00:49 00:27:32 00:00:24 00:15:21
4 Sam Ward 1994 NZL 18 00:52:14 00:08:33 00:00:52 00:27:04 00:00:25 00:15:21
5 Brandon Copeland 1996 AUS 30 00:52:20 00:08:14 00:00:47 00:27:30 00:00:25 00:15:25
6 Massimo De Ponti 1987 ITA 16 00:52:23 00:08:39 00:00:51 00:27:01 00:00:25 00:15:29
7 Roberto Sanchez Mantecon 1996 ESP 28 00:52:23 00:08:24 00:00:51 00:27:14 00:00:27 00:15:30
8 Daniel Hoy 1998 NZL 34 00:52:24 00:08:33 00:00:49 00:27:08 00:00:25 00:15:31
9 Andreas Schilling 1991 DEN 1 00:52:26 00:08:16 00:00:47 00:27:26 00:00:25 00:15:35
10 Simon Viain 1993 FRA 4 00:52:28 00:08:34 00:00:50 00:27:05 00:00:26 00:15:35
11 Rodrigo Gonzalez 1989 MEX 3 00:52:28 00:08:40 00:00:46 00:27:06 00:00:29 00:15:29
12 Declan Wilson 1993 AUS 25 00:52:32 00:08:26 00:00:45 00:27:18 00:00:24 00:15:40
13 Min Ho Heo 1990 KOR 59 00:52:38 00:08:32 00:00:49 00:27:08 00:00:22 00:15:48
14 Peter Denteneer 1990 BEL 32 00:52:38 00:08:12 00:00:51 00:27:25 00:00:24 00:15:48
15 Maximilian Schwetz 1991 GER 35 00:52:42 00:08:05 00:00:48 00:27:37 00:00:25 00:15:49
16 Gregory Barnaby 1991 ITA 33 00:52:44 00:08:35 00:00:48 00:27:03 00:00:24 00:15:56
17 Antonio Benito Lopez 1994 ESP 31 00:52:48 00:08:33 00:00:49 00:27:10 00:00:24 00:15:53
18 Luke Burns 1998 AUS 43 00:52:52 00:08:37 00:00:47 00:27:07 00:00:24 00:15:59
19 Nicholas Free 1998 AUS 41 00:53:02 00:08:23 00:00:51 00:27:17 00:00:36 00:15:55
20 Tayler Reid 1996 NZL 15 00:53:02 00:08:01 00:00:48 00:27:39 00:00:26 00:16:10
21 Eric Lagerstrom 1989 USA 21 00:53:08 00:08:14 00:00:44 00:27:33 00:00:25 00:16:15
22 Jan Celustka 1982 CZE 20 00:53:08 00:08:37 00:00:51 00:27:03 00:00:30 00:16:09
23 Makoto Odakura 1993 JPN 14 00:53:11 00:08:27 00:00:48 00:27:14 00:00:29 00:16:15
24 Filipe Azevedo 1993 POR 36 00:53:11 00:08:34 00:00:50 00:27:09 00:00:37 00:16:01
25 Donald Hillebregt 1992 NED 46 00:53:19 00:08:11 00:00:51 00:27:26 00:00:36 00:16:15
26 András Czigány 1993 HUN 40 00:53:21 00:08:13 00:00:47 00:27:31 00:00:25 00:16:27
27 Oscar Coggins 1999 HKG 56 00:53:27 00:08:35 00:00:50 00:27:05 00:00:00 00:00:00
28 Ryousuke Maeda 1995 JPN 12 00:53:36 00:08:14 00:00:46 00:27:30 00:00:25 00:16:44
29 Delian Stateff 1994 ITA 39 00:53:38 00:08:11 00:00:51 00:27:29 00:00:44 00:16:26
30 Jelle Geens 1993 BEL 10 00:53:39 00:08:36 00:00:45 00:27:07 00:00:24 00:16:49
31 Uxio Abuin Ares 1991 ESP 5 00:53:42 00:08:15 00:00:45 00:27:31 00:00:25 00:16:49
32 Gábor Faldum 1988 HUN 9 00:53:43 00:08:28 00:00:50 00:28:33 00:00:24 00:15:30
33 Miki Taagholt 1994 DEN 57 00:53:49 00:08:35 00:00:50 00:27:02 00:00:52 00:16:30
34 Shogo Ishitsuka 1989 JPN 22 00:53:52 00:08:08 00:00:49 00:27:35 00:00:26 00:16:55
35 Amitai Yonah 1994 ISR 42 00:53:54 00:08:55 00:00:50 00:28:05 00:00:28 00:15:38
36 Ji Hwan Kim 1990 KOR 26 00:53:55 00:08:34 00:00:46 00:27:11 00:00:27 00:16:57
37 Seung Hun Seo 1993 KOR 71 00:53:55 00:08:20 00:00:44 00:27:29 00:00:23 00:17:01
38 Jonathan Wayaffe 1995 BEL 29 00:53:56 00:08:42 00:00:54 00:28:16 00:00:26 00:15:41
39 Alessandro Fabian 1988 ITA 17 00:54:22 00:08:39 00:00:49 00:28:23 00:00:36 00:15:58
40 Emil Holm 1996 DEN 51 00:54:25 00:08:42 00:00:51 00:28:22 00:00:26 00:16:04
41 István Király 1994 HUN 27 00:54:37 00:08:51 00:00:50 00:28:09 00:00:24 00:16:25
42 Hayden Wilde 1997 NZL 19 00:54:46 00:08:35 00:01:04 00:28:12 00:00:26 00:16:30
43 Francesc Godoy Contreras 1986 ESP 52 00:55:06 00:08:13 00:00:49 00:27:29 00:00:25 00:18:12
44 Milosz Sowinski 1995 POL 62 00:55:27 00:08:38 00:00:52 00:28:24 00:00:30 00:17:04
45 Seung Jun Lee 1995 KOR 48 00:55:29 00:08:35 00:00:48 00:28:30 00:00:26 00:17:12
46 Gyuseo Choi 1994 KOR 66 00:55:52 00:08:47 00:00:47 00:28:19 00:00:30 00:17:31
47 Max Neumann 1995 AUS 44 00:56:12 00:08:38 00:00:51 00:28:23 00:00:26 00:17:55
48 Oliver Gorges 1998 LUX 55 00:56:15 00:08:32 00:00:54 00:28:29 00:00:26 00:17:55
49 Ju Seok Kim 1989 KOR 58 00:56:25 00:08:36 00:00:50 00:28:27 00:00:28 00:18:06
50 Hugo Mario Ruiz Dimate 1997 COL 67 00:56:37 00:08:52 00:00:54 00:29:32 00:00:28 00:16:53
51 Ji Hong Lee 1992 KOR 47 00:56:44 00:08:39 00:00:49 00:29:51 00:00:28 00:16:59
52 Edgar Andrés Bermúdez Muñoz 1999 COL 69 00:56:51 00:08:54 00:00:48 00:29:25 00:00:27 00:17:19
53 David Guete 1991 COL 60 00:58:02 00:08:48 00:00:52 00:31:34 00:00:29 00:16:20
54 Wei-Chih Lin 1998 TPE 61 00:58:08 00:08:42 00:00:47 00:29:48 00:00:30 00:18:23
55 Jung Ki Kim 1995 KOR 49 00:58:16 00:08:41 00:00:46 00:28:27 00:00:25 00:19:59
56 Tuan Chun Chang 1994 TPE 54 00:59:22 00:08:54 00:00:48 00:31:55 00:00:35 00:17:11
57 Yuki Umeda 1985 JPN 45 00:59:26 00:08:51 00:00:49 00:31:57 00:00:29 00:17:21
58 Soung Geun Sin 1991 KOR 63 00:59:55 00:08:43 00:00:44 00:32:12 00:00:33 00:17:45
59 Wei Kai Wang 1994 TPE 53 01:00:33 00:09:19 00:00:53 00:31:24 00:00:27 00:18:32
60 Hwa Mok Jang 1989 KOR 70 01:01:01 00:08:47 00:00:45 00:32:03 00:00:25 00:19:02
61 Alexandru Ion 1998 ROU 64 01:02:10 00:08:30 00:00:57 00:32:08 00:00:31 00:20:06
DNF Jason West 1993 USA 24 DNF 00:08:49 00:00:51 00:29:38 00:00:35 00:00:00
DNF Brennen Smith 1997 CAN 37 DNF 00:08:10 00:00:46 00:00:00 00:00:00 00:00:00
DNF Kwang Hoon Lee 1995 KOR 50 DNF 00:08:26 00:00:50 00:00:00 00:00:00 00:00:00
DNF Juan José Cano Castillo 1998 COL 65 DNF 00:08:38 00:00:49 00:00:00 00:00:00 00:00:00
DNF Jae Yun Won 1987 KOR 68 DNF 00:08:07 00:00:48 00:00:00 00:00:00 00:00:00
Program notes:

Technical Delegate: Omar Abu Bakar/SGP. Race Referee: Lee Dong Chai/KOR. Competition Jury: Omar Abu Bakar/SGP, Shin Otsuka/JPN, Justin Sukwon Park/KOR. Distances: Swim 750m (1 lap), Bike 19.88km (3 laps), Run 5 km (2 laps). Water temperature: 19.3C. Air Temperature: 19.6C, Humidity: 68%, WGBT: 17.8C. Wetsuits allowed.